N324CG PAMR-PADU
Flight info
| Callsign | N324CG |
|---|---|
| Flight time | 1h 46m |
| Altitude | 36000 |
| Route | ENA J115 CUDDA MORDI |
| Aircraft | C720/M-VGDW/C |
Departure
| Time | 2026-04-12 01:25 |
|---|---|
| Airport | Merrill Field (PAMR) |
Arrival
| Time | 2026-04-12 03:12 |
|---|---|
| Airport | Tom Madsen (Dutch Harbor) Airport (PADU) |
| Time | Latitude | Longitude | Altitude | Speed | Heading |
|---|---|---|---|---|---|
| 2026-04-12 01:15 | 61.21669 | -149.84135 | 137 ft | 0 kts | 263° |
| 2026-04-12 01:22 | 61.21658 | -149.84137 | 137 ft | 4 kts | 167° |
| 2026-04-12 01:22 | 61.21644 | -149.84002 | 137 ft | 17 kts | 91° |
| 2026-04-12 01:22 | 61.21644 | -149.83767 | 139 ft | 15 kts | 90° |
| 2026-04-12 01:23 | 61.21644 | -149.83560 | 140 ft | 13 kts | 90° |
| 2026-04-12 01:23 | 61.21644 | -149.83377 | 141 ft | 12 kts | 90° |
| 2026-04-12 01:23 | 61.21644 | -149.83221 | 142 ft | 10 kts | 89° |
| 2026-04-12 01:23 | 61.21641 | -149.83127 | 142 ft | 0 kts | 110° |
| 2026-04-12 01:24 | 61.21639 | -149.83121 | 142 ft | 2 kts | 121° |
| 2026-04-12 01:24 | 61.21637 | -149.83118 | 142 ft | 0 kts | 134° |
| 2026-04-12 01:24 | 61.21609 | -149.83102 | 142 ft | 9 kts | 158° |
| 2026-04-12 01:25 | 61.21592 | -149.83115 | 142 ft | 1 kts | 258° |
| 2026-04-12 01:25 | 61.21590 | -149.83726 | 139 ft | 94 kts | 270° |
| 2026-04-12 01:25 | 61.21600 | -149.85474 | 447 ft | 122 kts | 272° |
| 2026-04-12 01:25 | 61.21541 | -149.87201 | 1141 ft | 123 kts | 258° |
| 2026-04-12 01:26 | 61.21368 | -149.88983 | 1882 ft | 128 kts | 251° |
| 2026-04-12 01:26 | 61.21070 | -149.90775 | 2429 ft | 138 kts | 261° |
| 2026-04-12 01:26 | 61.21060 | -149.92829 | 3008 ft | 148 kts | 274° |
| 2026-04-12 01:26 | 61.21172 | -149.95039 | 3538 ft | 164 kts | 272° |
| 2026-04-12 01:27 | 61.21219 | -149.96697 | 3824 ft | 180 kts | 271° |
| 2026-04-12 01:27 | 61.21295 | -150.00427 | 4466 ft | 209 kts | 270° |
| 2026-04-12 01:27 | 61.21329 | -150.02550 | 4821 ft | 224 kts | 270° |
| 2026-04-12 01:27 | 61.21376 | -150.05900 | 5344 ft | 244 kts | 269° |
| 2026-04-12 01:28 | 61.21422 | -150.09551 | 5965 ft | 253 kts | 269° |
| 2026-04-12 01:28 | 61.21480 | -150.13143 | 6601 ft | 248 kts | 269° |
| 2026-04-12 01:28 | 61.21550 | -150.16734 | 7217 ft | 251 kts | 270° |
| 2026-04-12 01:28 | 61.21616 | -150.20495 | 7850 ft | 269 kts | 269° |
| 2026-04-12 01:29 | 61.21673 | -150.24365 | 8528 ft | 271 kts | 269° |
| 2026-04-12 01:29 | 61.21727 | -150.28280 | 9455 ft | 271 kts | 269° |
| 2026-04-12 01:29 | 61.21618 | -150.32173 | 10245 ft | 274 kts | 252° |
| 2026-04-12 01:29 | 61.20572 | -150.35386 | 11003 ft | 271 kts | 218° |
| 2026-04-12 01:30 | 61.18915 | -150.37261 | 11945 ft | 268 kts | 205° |
| 2026-04-12 01:30 | 61.17254 | -150.39030 | 12799 ft | 271 kts | 209° |
| 2026-04-12 01:30 | 61.15698 | -150.41223 | 13649 ft | 274 kts | 215° |
| 2026-04-12 01:30 | 61.14185 | -150.43635 | 14429 ft | 276 kts | 216° |
| 2026-04-12 01:31 | 61.12612 | -150.45991 | 15197 ft | 278 kts | 213° |
| 2026-04-12 01:31 | 61.11010 | -150.48285 | 15978 ft | 280 kts | 213° |
| 2026-04-12 01:31 | 61.09431 | -150.50579 | 16761 ft | 283 kts | 213° |
| 2026-04-12 01:31 | 61.07809 | -150.52971 | 17589 ft | 285 kts | 213° |
| 2026-04-12 01:32 | 61.06191 | -150.55342 | 18383 ft | 288 kts | 213° |
| 2026-04-12 01:32 | 61.04537 | -150.57750 | 19094 ft | 291 kts | 213° |
| 2026-04-12 01:32 | 61.02893 | -150.60145 | 19792 ft | 294 kts | 213° |
| 2026-04-12 01:32 | 61.01214 | -150.62590 | 20518 ft | 297 kts | 213° |
| 2026-04-12 01:33 | 60.99504 | -150.65077 | 21244 ft | 300 kts | 213° |
| 2026-04-12 01:33 | 60.97789 | -150.67567 | 21962 ft | 304 kts | 214° |
| 2026-04-12 01:33 | 60.96055 | -150.70081 | 22677 ft | 308 kts | 214° |
| 2026-04-12 01:33 | 60.94316 | -150.72599 | 23394 ft | 311 kts | 214° |
| 2026-04-12 01:34 | 60.92531 | -150.75179 | 24017 ft | 314 kts | 213° |
| 2026-04-12 01:34 | 60.90738 | -150.77768 | 24665 ft | 316 kts | 213° |
| 2026-04-12 01:34 | 60.88937 | -150.80365 | 25294 ft | 318 kts | 213° |
| 2026-04-12 01:34 | 60.87106 | -150.83002 | 25940 ft | 321 kts | 213° |
| 2026-04-12 01:35 | 60.85275 | -150.85628 | 26587 ft | 323 kts | 212° |
| 2026-04-12 01:35 | 60.83419 | -150.88290 | 27242 ft | 325 kts | 212° |
| 2026-04-12 01:35 | 60.81558 | -150.90965 | 27858 ft | 329 kts | 212° |
| 2026-04-12 01:35 | 60.79668 | -150.93686 | 28505 ft | 331 kts | 212° |
| 2026-04-12 01:36 | 60.77790 | -150.96367 | 29142 ft | 334 kts | 212° |
| 2026-04-12 01:36 | 60.75852 | -150.99122 | 29811 ft | 336 kts | 211° |
| 2026-04-12 01:36 | 60.73940 | -151.01844 | 30357 ft | 340 kts | 212° |
| 2026-04-12 01:36 | 60.71991 | -151.04622 | 30811 ft | 345 kts | 212° |
| 2026-04-12 01:37 | 60.69984 | -151.07475 | 31286 ft | 349 kts | 212° |
| 2026-04-12 01:37 | 60.67995 | -151.10292 | 31749 ft | 354 kts | 213° |
| 2026-04-12 01:37 | 60.65946 | -151.13193 | 32216 ft | 359 kts | 213° |
| 2026-04-12 01:37 | 60.63872 | -151.16144 | 32681 ft | 364 kts | 214° |
| 2026-04-12 01:38 | 60.61937 | -151.19566 | 33106 ft | 371 kts | 224° |
| 2026-04-12 01:38 | 60.60276 | -151.23612 | 33604 ft | 376 kts | 232° |
| 2026-04-12 01:38 | 60.58882 | -151.28116 | 34059 ft | 381 kts | 237° |
| 2026-04-12 01:38 | 60.57486 | -151.32756 | 34463 ft | 385 kts | 237° |
| 2026-04-12 01:39 | 60.56074 | -151.37377 | 34841 ft | 389 kts | 237° |
| 2026-04-12 01:39 | 60.54640 | -151.42084 | 35217 ft | 394 kts | 237° |
| 2026-04-12 01:39 | 60.53197 | -151.46841 | 35602 ft | 398 kts | 237° |
| 2026-04-12 01:39 | 60.51726 | -151.51667 | 35981 ft | 402 kts | 237° |
| 2026-04-12 01:40 | 60.50238 | -151.56530 | 35989 ft | 416 kts | 237° |
| 2026-04-12 01:40 | 60.48679 | -151.61623 | 36003 ft | 429 kts | 237° |
| 2026-04-12 01:40 | 60.47076 | -151.66845 | 36003 ft | 442 kts | 237° |
| 2026-04-12 01:40 | 60.45429 | -151.72192 | 36003 ft | 454 kts | 237° |
| 2026-04-12 01:41 | 60.43712 | -151.77766 | 36000 ft | 466 kts | 237° |
| 2026-04-12 01:41 | 60.40215 | -151.89069 | 35985 ft | 484 kts | 237° |
| 2026-04-12 01:42 | 60.36593 | -152.00712 | 35976 ft | 493 kts | 237° |
| 2026-04-12 01:42 | 60.32928 | -152.12432 | 35970 ft | 491 kts | 237° |
| 2026-04-12 01:43 | 60.29284 | -152.24035 | 35962 ft | 488 kts | 237° |
| 2026-04-12 01:43 | 60.25663 | -152.35500 | 35952 ft | 485 kts | 237° |
| 2026-04-12 01:44 | 60.22019 | -152.46986 | 35950 ft | 484 kts | 237° |
| 2026-04-12 01:44 | 60.18473 | -152.58468 | 35953 ft | 483 kts | 238° |
| 2026-04-12 01:45 | 60.14927 | -152.69885 | 35953 ft | 483 kts | 237° |
| 2026-04-12 01:45 | 60.11337 | -152.81346 | 35958 ft | 482 kts | 238° |
| 2026-04-12 01:46 | 60.07767 | -152.92737 | 35956 ft | 483 kts | 237° |
| 2026-04-12 01:46 | 60.04188 | -153.04058 | 35956 ft | 482 kts | 237° |
| 2026-04-12 01:47 | 60.00604 | -153.15373 | 35966 ft | 483 kts | 237° |
| 2026-04-12 01:47 | 59.96972 | -153.26759 | 35970 ft | 483 kts | 237° |
| 2026-04-12 01:48 | 59.93370 | -153.38013 | 35982 ft | 483 kts | 237° |
| 2026-04-12 01:48 | 59.89735 | -153.49303 | 35992 ft | 483 kts | 237° |
| 2026-04-12 01:49 | 59.86103 | -153.60536 | 35998 ft | 484 kts | 237° |
| 2026-04-12 01:49 | 59.82438 | -153.71814 | 36008 ft | 484 kts | 237° |
| 2026-04-12 01:50 | 59.78782 | -153.83014 | 36015 ft | 484 kts | 237° |
| 2026-04-12 01:50 | 59.75129 | -153.94146 | 36016 ft | 484 kts | 237° |
| 2026-04-12 01:51 | 59.69610 | -154.10867 | 36022 ft | 483 kts | 237° |
| 2026-04-12 01:51 | 59.65916 | -154.21995 | 36027 ft | 483 kts | 237° |
| 2026-04-12 01:52 | 59.62242 | -154.33010 | 36032 ft | 483 kts | 237° |
| 2026-04-12 01:52 | 59.58530 | -154.44086 | 36036 ft | 483 kts | 237° |
| 2026-04-12 01:53 | 59.54830 | -154.55071 | 36038 ft | 483 kts | 237° |
| 2026-04-12 01:53 | 59.50961 | -154.65892 | 36034 ft | 483 kts | 235° |
| 2026-04-12 01:54 | 59.47087 | -154.76712 | 36039 ft | 483 kts | 235° |
| 2026-04-12 01:54 | 59.43214 | -154.87414 | 36037 ft | 483 kts | 235° |
| 2026-04-12 01:55 | 59.39327 | -154.98147 | 36032 ft | 482 kts | 235° |
| 2026-04-12 01:55 | 59.35446 | -155.08820 | 36036 ft | 482 kts | 235° |
| 2026-04-12 01:56 | 59.31522 | -155.19504 | 36035 ft | 482 kts | 235° |
| 2026-04-12 01:56 | 59.27597 | -155.30196 | 36042 ft | 482 kts | 235° |
| 2026-04-12 01:57 | 59.23680 | -155.40794 | 36046 ft | 482 kts | 235° |
| 2026-04-12 01:57 | 59.19746 | -155.51402 | 36053 ft | 482 kts | 235° |
| 2026-04-12 01:58 | 59.15817 | -155.61943 | 36060 ft | 481 kts | 235° |
| 2026-04-12 01:58 | 59.11869 | -155.72489 | 36061 ft | 481 kts | 235° |
| 2026-04-12 01:59 | 59.07906 | -155.83031 | 36054 ft | 481 kts | 235° |
| 2026-04-12 01:59 | 59.03945 | -155.93519 | 36056 ft | 480 kts | 235° |
| 2026-04-12 02:00 | 58.99990 | -156.03944 | 36044 ft | 480 kts | 235° |
| 2026-04-12 02:00 | 58.96027 | -156.14341 | 36042 ft | 481 kts | 235° |
| 2026-04-12 02:01 | 58.92039 | -156.24765 | 36046 ft | 480 kts | 235° |
| 2026-04-12 02:01 | 58.88052 | -156.35134 | 36045 ft | 480 kts | 235° |
| 2026-04-12 02:02 | 58.84058 | -156.45481 | 36050 ft | 479 kts | 235° |
| 2026-04-12 02:02 | 58.80063 | -156.55781 | 36051 ft | 479 kts | 235° |
| 2026-04-12 02:03 | 58.76067 | -156.66037 | 36048 ft | 478 kts | 235° |
| 2026-04-12 02:03 | 58.71996 | -156.76179 | 36034 ft | 479 kts | 231° |
| 2026-04-12 02:04 | 58.67344 | -156.85411 | 36082 ft | 479 kts | 229° |
| 2026-04-12 02:04 | 58.62738 | -156.94633 | 36078 ft | 479 kts | 229° |
| 2026-04-12 02:05 | 58.58842 | -157.02293 | 36081 ft | 479 kts | 229° |
| 2026-04-12 02:05 | 58.54223 | -157.11419 | 36081 ft | 479 kts | 229° |
| 2026-04-12 02:06 | 58.49563 | -157.20554 | 36083 ft | 478 kts | 229° |
| 2026-04-12 02:06 | 58.44909 | -157.29656 | 36096 ft | 478 kts | 229° |
| 2026-04-12 02:07 | 58.40247 | -157.38731 | 36096 ft | 478 kts | 229° |
| 2026-04-12 02:07 | 58.35579 | -157.47782 | 36096 ft | 477 kts | 229° |
| 2026-04-12 02:08 | 58.30941 | -157.56742 | 36090 ft | 477 kts | 229° |
| 2026-04-12 02:08 | 58.26291 | -157.65685 | 36090 ft | 476 kts | 229° |
| 2026-04-12 02:09 | 58.21604 | -157.74668 | 36089 ft | 476 kts | 229° |
| 2026-04-12 02:09 | 58.16939 | -157.83569 | 36086 ft | 475 kts | 229° |
| 2026-04-12 02:10 | 58.12292 | -157.92403 | 36079 ft | 475 kts | 229° |
| 2026-04-12 02:10 | 58.07620 | -158.01251 | 36067 ft | 475 kts | 229° |
| 2026-04-12 02:11 | 58.02959 | -158.10041 | 36066 ft | 474 kts | 229° |
| 2026-04-12 02:11 | 57.98274 | -158.18843 | 36064 ft | 474 kts | 229° |
| 2026-04-12 02:12 | 57.93612 | -158.27562 | 36071 ft | 473 kts | 229° |
| 2026-04-12 02:12 | 57.88942 | -158.36253 | 36073 ft | 473 kts | 229° |
| 2026-04-12 02:13 | 57.84240 | -158.44978 | 36081 ft | 472 kts | 229° |
| 2026-04-12 02:13 | 57.79577 | -158.53591 | 36079 ft | 472 kts | 229° |
| 2026-04-12 02:14 | 57.74887 | -158.62224 | 36084 ft | 471 kts | 229° |
| 2026-04-12 02:14 | 57.70214 | -158.70792 | 36088 ft | 471 kts | 229° |
| 2026-04-12 02:15 | 57.65501 | -158.79402 | 36091 ft | 471 kts | 229° |
| 2026-04-12 02:15 | 57.60835 | -158.87889 | 36092 ft | 471 kts | 229° |
| 2026-04-12 02:16 | 57.56115 | -158.96445 | 36090 ft | 470 kts | 229° |
| 2026-04-12 02:16 | 57.51436 | -159.04893 | 36096 ft | 470 kts | 229° |
| 2026-04-12 02:17 | 57.46738 | -159.13346 | 36099 ft | 470 kts | 229° |
| 2026-04-12 02:17 | 57.42035 | -159.21774 | 36103 ft | 469 kts | 229° |
| 2026-04-12 02:18 | 57.37324 | -159.30185 | 36101 ft | 469 kts | 229° |
| 2026-04-12 02:18 | 57.32610 | -159.38568 | 36104 ft | 469 kts | 229° |
| 2026-04-12 02:19 | 57.27904 | -159.46909 | 36108 ft | 468 kts | 229° |
| 2026-04-12 02:19 | 57.23195 | -159.55222 | 36113 ft | 468 kts | 229° |
| 2026-04-12 02:20 | 57.18498 | -159.63485 | 36114 ft | 468 kts | 229° |
| 2026-04-12 02:20 | 57.13777 | -159.71756 | 36120 ft | 467 kts | 229° |
| 2026-04-12 02:21 | 57.09061 | -159.79991 | 36121 ft | 467 kts | 229° |
| 2026-04-12 02:21 | 57.04329 | -159.88222 | 36122 ft | 467 kts | 229° |
| 2026-04-12 02:22 | 56.99597 | -159.96424 | 36127 ft | 467 kts | 229° |
| 2026-04-12 02:22 | 56.94881 | -160.04568 | 36129 ft | 467 kts | 229° |
| 2026-04-12 02:23 | 56.90162 | -160.12686 | 36129 ft | 466 kts | 229° |
| 2026-04-12 02:23 | 56.85424 | -160.20808 | 36135 ft | 466 kts | 229° |
| 2026-04-12 02:24 | 56.80720 | -160.29029 | 36123 ft | 462 kts | 232° |
| 2026-04-12 02:24 | 56.76960 | -160.38313 | 36153 ft | 456 kts | 241° |
| 2026-04-12 02:25 | 56.73417 | -160.47917 | 36159 ft | 456 kts | 240° |
| 2026-04-12 02:25 | 56.69885 | -160.57498 | 36156 ft | 456 kts | 240° |
| 2026-04-12 02:26 | 56.66340 | -160.67063 | 36159 ft | 457 kts | 240° |
| 2026-04-12 02:26 | 56.62744 | -160.76725 | 36160 ft | 460 kts | 240° |
| 2026-04-12 02:27 | 56.59154 | -160.86343 | 36159 ft | 461 kts | 240° |
| 2026-04-12 02:27 | 56.55542 | -160.95972 | 36164 ft | 462 kts | 240° |
| 2026-04-12 02:28 | 56.51937 | -161.05550 | 36163 ft | 462 kts | 240° |
| 2026-04-12 02:28 | 56.48310 | -161.15148 | 36166 ft | 462 kts | 240° |
| 2026-04-12 02:29 | 56.44670 | -161.24740 | 36160 ft | 462 kts | 240° |
| 2026-04-12 02:29 | 56.41014 | -161.34336 | 36163 ft | 462 kts | 240° |
| 2026-04-12 02:30 | 56.37378 | -161.43843 | 36169 ft | 461 kts | 240° |
| 2026-04-12 02:30 | 56.33724 | -161.53360 | 36164 ft | 461 kts | 240° |
| 2026-04-12 02:31 | 56.30054 | -161.62881 | 36163 ft | 460 kts | 240° |
| 2026-04-12 02:31 | 56.26397 | -161.72331 | 36163 ft | 460 kts | 240° |
| 2026-04-12 02:32 | 56.22735 | -161.81760 | 36166 ft | 460 kts | 240° |
| 2026-04-12 02:32 | 56.19074 | -161.91143 | 36174 ft | 459 kts | 240° |
| 2026-04-12 02:33 | 56.15409 | -162.00501 | 36167 ft | 459 kts | 240° |
| 2026-04-12 02:33 | 56.11725 | -162.09885 | 36169 ft | 459 kts | 240° |
| 2026-04-12 02:34 | 56.08047 | -162.19205 | 36172 ft | 458 kts | 239° |
| 2026-04-12 02:34 | 56.04348 | -162.28548 | 36169 ft | 458 kts | 239° |
| 2026-04-12 02:35 | 56.00668 | -162.37804 | 36177 ft | 457 kts | 239° |
| 2026-04-12 02:35 | 55.96976 | -162.47057 | 36178 ft | 457 kts | 239° |
| 2026-04-12 02:36 | 55.93272 | -162.56304 | 36177 ft | 456 kts | 239° |
| 2026-04-12 02:36 | 55.89591 | -162.65467 | 36178 ft | 456 kts | 239° |
| 2026-04-12 02:37 | 55.85884 | -162.74646 | 36182 ft | 456 kts | 239° |
| 2026-04-12 02:37 | 55.82165 | -162.83830 | 36187 ft | 455 kts | 239° |
| 2026-04-12 02:38 | 55.78462 | -162.92940 | 36188 ft | 455 kts | 239° |
| 2026-04-12 02:38 | 55.76607 | -162.97485 | 35945 ft | 456 kts | 239° |
| 2026-04-12 02:38 | 55.74741 | -163.02043 | 35550 ft | 452 kts | 239° |
| 2026-04-12 02:39 | 55.72909 | -163.06514 | 35155 ft | 443 kts | 239° |
| 2026-04-12 02:39 | 55.71713 | -163.09431 | 34896 ft | 438 kts | 239° |
| 2026-04-12 02:39 | 55.69360 | -163.15189 | 34393 ft | 429 kts | 239° |
| 2026-04-12 02:39 | 55.68196 | -163.18020 | 34161 ft | 425 kts | 239° |
| 2026-04-12 02:40 | 55.66461 | -163.22218 | 33765 ft | 420 kts | 239° |
| 2026-04-12 02:40 | 55.64736 | -163.26395 | 33402 ft | 418 kts | 239° |
| 2026-04-12 02:40 | 55.63024 | -163.30546 | 33035 ft | 418 kts | 239° |
| 2026-04-12 02:40 | 55.61312 | -163.34685 | 32669 ft | 418 kts | 239° |
| 2026-04-12 02:41 | 55.59591 | -163.38825 | 32307 ft | 419 kts | 239° |
| 2026-04-12 02:41 | 55.57842 | -163.43032 | 31934 ft | 421 kts | 239° |
| 2026-04-12 02:41 | 55.56109 | -163.47206 | 31563 ft | 422 kts | 239° |
| 2026-04-12 02:41 | 55.54371 | -163.51379 | 31190 ft | 423 kts | 239° |
| 2026-04-12 02:42 | 55.52616 | -163.55579 | 30817 ft | 424 kts | 239° |
| 2026-04-12 02:42 | 55.50865 | -163.59768 | 30445 ft | 428 kts | 239° |
| 2026-04-12 02:42 | 55.49083 | -163.64028 | 30040 ft | 432 kts | 239° |
| 2026-04-12 02:43 | 55.45447 | -163.72671 | 29265 ft | 444 kts | 238° |
| 2026-04-12 02:43 | 55.43594 | -163.77069 | 28867 ft | 441 kts | 238° |
| 2026-04-12 02:43 | 55.41786 | -163.81366 | 28481 ft | 439 kts | 238° |
| 2026-04-12 02:43 | 55.39953 | -163.85704 | 28093 ft | 437 kts | 238° |
| 2026-04-12 02:44 | 55.38148 | -163.89960 | 27710 ft | 436 kts | 238° |
| 2026-04-12 02:44 | 55.36349 | -163.94199 | 27329 ft | 435 kts | 238° |
| 2026-04-12 02:44 | 55.34533 | -163.98475 | 26950 ft | 434 kts | 238° |
| 2026-04-12 02:44 | 55.32717 | -164.02743 | 26566 ft | 433 kts | 238° |
| 2026-04-12 02:45 | 55.30913 | -164.06973 | 26187 ft | 432 kts | 238° |
| 2026-04-12 02:45 | 55.29123 | -164.11163 | 25812 ft | 430 kts | 238° |
| 2026-04-12 02:45 | 55.27323 | -164.15370 | 25434 ft | 429 kts | 238° |
| 2026-04-12 02:45 | 55.25537 | -164.19541 | 25064 ft | 427 kts | 238° |
| 2026-04-12 02:46 | 55.23763 | -164.23680 | 24692 ft | 425 kts | 238° |
| 2026-04-12 02:46 | 55.21975 | -164.27841 | 24311 ft | 423 kts | 238° |
| 2026-04-12 02:46 | 55.20204 | -164.31950 | 23947 ft | 422 kts | 238° |
| 2026-04-12 02:46 | 55.18432 | -164.36041 | 23543 ft | 421 kts | 238° |
| 2026-04-12 02:47 | 55.16666 | -164.40117 | 23166 ft | 418 kts | 238° |
| 2026-04-12 02:47 | 55.14941 | -164.44109 | 22808 ft | 415 kts | 238° |
| 2026-04-12 02:47 | 55.13201 | -164.48135 | 22444 ft | 413 kts | 238° |
| 2026-04-12 02:47 | 55.11462 | -164.52139 | 22082 ft | 411 kts | 238° |
| 2026-04-12 02:48 | 55.09751 | -164.56067 | 21724 ft | 408 kts | 238° |
| 2026-04-12 02:48 | 55.08037 | -164.60000 | 21367 ft | 406 kts | 238° |
| 2026-04-12 02:48 | 55.06321 | -164.63936 | 21012 ft | 404 kts | 238° |
| 2026-04-12 02:48 | 55.04622 | -164.67825 | 20657 ft | 402 kts | 238° |
| 2026-04-12 02:49 | 55.02913 | -164.71730 | 20301 ft | 401 kts | 238° |
| 2026-04-12 02:49 | 55.01241 | -164.75543 | 19956 ft | 399 kts | 238° |
| 2026-04-12 02:49 | 54.99554 | -164.79384 | 19612 ft | 397 kts | 238° |
| 2026-04-12 02:49 | 54.97886 | -164.83178 | 19269 ft | 395 kts | 238° |
| 2026-04-12 02:50 | 54.96216 | -164.86967 | 18914 ft | 393 kts | 238° |
| 2026-04-12 02:50 | 54.94557 | -164.90730 | 18570 ft | 390 kts | 238° |
| 2026-04-12 02:50 | 54.92906 | -164.94468 | 18204 ft | 388 kts | 238° |
| 2026-04-12 02:50 | 54.91264 | -164.98177 | 17858 ft | 385 kts | 238° |
| 2026-04-12 02:51 | 54.89642 | -165.01837 | 17465 ft | 383 kts | 238° |
| 2026-04-12 02:51 | 54.88015 | -165.05522 | 16962 ft | 384 kts | 238° |
| 2026-04-12 02:51 | 54.86470 | -165.09250 | 16614 ft | 381 kts | 239° |
| 2026-04-12 02:51 | 54.84907 | -165.12969 | 16277 ft | 379 kts | 238° |
| 2026-04-12 02:52 | 54.83353 | -165.16640 | 15948 ft | 378 kts | 239° |
| 2026-04-12 02:52 | 54.81797 | -165.20350 | 15615 ft | 377 kts | 239° |
| 2026-04-12 02:52 | 54.80262 | -165.24022 | 15283 ft | 377 kts | 239° |
| 2026-04-12 02:52 | 54.78733 | -165.27657 | 14960 ft | 377 kts | 238° |
| 2026-04-12 02:53 | 54.77170 | -165.31353 | 14625 ft | 376 kts | 238° |
| 2026-04-12 02:53 | 54.75638 | -165.34980 | 14296 ft | 376 kts | 238° |
| 2026-04-12 02:53 | 54.72551 | -165.42276 | 13606 ft | 373 kts | 238° |
| 2026-04-12 02:54 | 54.71020 | -165.45883 | 13281 ft | 365 kts | 238° |
| 2026-04-12 02:54 | 54.69545 | -165.49353 | 12963 ft | 355 kts | 238° |
| 2026-04-12 02:54 | 54.68101 | -165.52749 | 12654 ft | 346 kts | 238° |
| 2026-04-12 02:54 | 54.66675 | -165.56103 | 12353 ft | 343 kts | 238° |
| 2026-04-12 02:55 | 54.65257 | -165.59446 | 12054 ft | 350 kts | 238° |
| 2026-04-12 02:55 | 54.63818 | -165.62822 | 11757 ft | 352 kts | 237° |
| 2026-04-12 02:55 | 54.62358 | -165.66223 | 11448 ft | 353 kts | 237° |
| 2026-04-12 02:55 | 54.60892 | -165.69644 | 11139 ft | 354 kts | 237° |
| 2026-04-12 02:56 | 54.59421 | -165.73082 | 10822 ft | 352 kts | 237° |
| 2026-04-12 02:56 | 54.58035 | -165.76297 | 10516 ft | 321 kts | 237° |
| 2026-04-12 02:56 | 54.56752 | -165.79274 | 10235 ft | 294 kts | 237° |
| 2026-04-12 02:56 | 54.55621 | -165.81891 | 9971 ft | 248 kts | 238° |
| 2026-04-12 02:57 | 54.54615 | -165.84238 | 9728 ft | 243 kts | 238° |
| 2026-04-12 02:57 | 54.53630 | -165.86542 | 9524 ft | 239 kts | 238° |
| 2026-04-12 02:57 | 54.52641 | -165.88833 | 9333 ft | 236 kts | 238° |
| 2026-04-12 02:57 | 54.51661 | -165.91100 | 9140 ft | 233 kts | 238° |
| 2026-04-12 02:58 | 54.50699 | -165.93326 | 8948 ft | 232 kts | 238° |
| 2026-04-12 02:58 | 54.49738 | -165.95548 | 8752 ft | 235 kts | 238° |
| 2026-04-12 02:58 | 54.48754 | -165.97822 | 8553 ft | 237 kts | 238° |
| 2026-04-12 02:58 | 54.47766 | -166.00101 | 8352 ft | 239 kts | 238° |
| 2026-04-12 02:59 | 54.46765 | -166.02409 | 8140 ft | 241 kts | 238° |
| 2026-04-12 02:59 | 54.45754 | -166.04734 | 7926 ft | 242 kts | 237° |
| 2026-04-12 02:59 | 54.44749 | -166.07049 | 7713 ft | 243 kts | 237° |
| 2026-04-12 02:59 | 54.43729 | -166.09393 | 7495 ft | 244 kts | 237° |
| 2026-04-12 03:00 | 54.42708 | -166.11737 | 7280 ft | 245 kts | 237° |
| 2026-04-12 03:00 | 54.41686 | -166.14075 | 7067 ft | 247 kts | 237° |
| 2026-04-12 03:00 | 54.40648 | -166.16453 | 6851 ft | 248 kts | 237° |
| 2026-04-12 03:00 | 54.39619 | -166.18810 | 6633 ft | 246 kts | 237° |
| 2026-04-12 03:01 | 54.38604 | -166.21134 | 6399 ft | 241 kts | 237° |
| 2026-04-12 03:01 | 54.37608 | -166.23410 | 6182 ft | 237 kts | 237° |
| 2026-04-12 03:01 | 54.36625 | -166.25655 | 5972 ft | 233 kts | 237° |
| 2026-04-12 03:01 | 54.35661 | -166.27853 | 5773 ft | 230 kts | 237° |
| 2026-04-12 03:02 | 54.34695 | -166.30057 | 5576 ft | 231 kts | 237° |
| 2026-04-12 03:02 | 54.33725 | -166.32276 | 5372 ft | 235 kts | 237° |
| 2026-04-12 03:02 | 54.32745 | -166.34513 | 5182 ft | 238 kts | 236° |
| 2026-04-12 03:02 | 54.31732 | -166.36798 | 4963 ft | 242 kts | 236° |
| 2026-04-12 03:03 | 54.30711 | -166.39106 | 4750 ft | 244 kts | 236° |
| 2026-04-12 03:03 | 54.29675 | -166.41462 | 4527 ft | 245 kts | 236° |
| 2026-04-12 03:03 | 54.28649 | -166.43794 | 4310 ft | 245 kts | 236° |
| 2026-04-12 03:03 | 54.27636 | -166.46084 | 4095 ft | 239 kts | 236° |
| 2026-04-12 03:04 | 54.26640 | -166.48336 | 3876 ft | 233 kts | 236° |
| 2026-04-12 03:04 | 54.25684 | -166.50500 | 3678 ft | 228 kts | 236° |
| 2026-04-12 03:04 | 54.24726 | -166.52661 | 3467 ft | 224 kts | 236° |
| 2026-04-12 03:04 | 54.23582 | -166.54381 | 3252 ft | 216 kts | 213° |
| 2026-04-12 03:05 | 54.22215 | -166.55095 | 3310 ft | 201 kts | 194° |
| 2026-04-12 03:05 | 54.20864 | -166.55347 | 3332 ft | 194 kts | 193° |
| 2026-04-12 03:05 | 54.19532 | -166.55631 | 3342 ft | 192 kts | 193° |
| 2026-04-12 03:05 | 54.18209 | -166.55908 | 3341 ft | 192 kts | 193° |
| 2026-04-12 03:06 | 54.16892 | -166.56173 | 3349 ft | 190 kts | 193° |
| 2026-04-12 03:06 | 54.15580 | -166.56437 | 3349 ft | 190 kts | 193° |
| 2026-04-12 03:06 | 54.14272 | -166.56702 | 3346 ft | 190 kts | 193° |
| 2026-04-12 03:06 | 54.12942 | -166.56971 | 3351 ft | 190 kts | 192° |
| 2026-04-12 03:07 | 54.11631 | -166.57235 | 3346 ft | 190 kts | 193° |
| 2026-04-12 03:07 | 54.10323 | -166.57499 | 3360 ft | 190 kts | 193° |
| 2026-04-12 03:07 | 54.09010 | -166.57764 | 3363 ft | 190 kts | 192° |
| 2026-04-12 03:07 | 54.07682 | -166.58032 | 3365 ft | 191 kts | 192° |
| 2026-04-12 03:08 | 54.06357 | -166.58301 | 3248 ft | 197 kts | 192° |
| 2026-04-12 03:08 | 54.04963 | -166.58584 | 3068 ft | 205 kts | 192° |
| 2026-04-12 03:08 | 54.03525 | -166.58870 | 2890 ft | 211 kts | 191° |
| 2026-04-12 03:08 | 54.02055 | -166.59165 | 2703 ft | 215 kts | 191° |
| 2026-04-12 03:09 | 54.00558 | -166.59368 | 2521 ft | 214 kts | 185° |
| 2026-04-12 03:09 | 53.99134 | -166.59298 | 2449 ft | 194 kts | 182° |
| 2026-04-12 03:09 | 53.97837 | -166.59155 | 2310 ft | 178 kts | 181° |
| 2026-04-12 03:09 | 53.96677 | -166.58867 | 1974 ft | 163 kts | 175° |
| 2026-04-12 03:10 | 53.95593 | -166.58513 | 1738 ft | 153 kts | 175° |
| 2026-04-12 03:10 | 53.94599 | -166.58341 | 1628 ft | 139 kts | 184° |
| 2026-04-12 03:10 | 53.93658 | -166.58273 | 1543 ft | 132 kts | 184° |
| 2026-04-12 03:10 | 53.92740 | -166.58111 | 1285 ft | 138 kts | 176° |
| 2026-04-12 03:11 | 53.91823 | -166.57511 | 833 ft | 143 kts | 153° |
| 2026-04-12 03:11 | 53.91044 | -166.56386 | 398 ft | 148 kts | 139° |
| 2026-04-12 03:11 | 53.90315 | -166.55208 | 58 ft | 143 kts | 135° |
| 2026-04-12 03:11 | 53.89745 | -166.54270 | 27 ft | 69 kts | 136° |
| 2026-04-12 03:12 | 53.89577 | -166.54070 | 22 ft | 13 kts | 209° |
| 2026-04-12 03:12 | 53.89564 | -166.54194 | 22 ft | 10 kts | 288° |
| 2026-04-12 03:12 | 53.89570 | -166.54224 | 20 ft | 6 kts | 289° |
| 2026-04-12 03:12 | 53.89563 | -166.54354 | 15 ft | 10 kts | 197° |
| 2026-04-12 03:13 | 53.89552 | -166.54341 | 15 ft | 0 kts | 110° |
| 2026-04-12 03:13 | 53.89556 | -166.54361 | 13 ft | 0 kts | 94° |
| 2026-04-12 03:13 | 53.89556 | -166.54360 | 13 ft | 0 kts | 91° |